Ana Sayfa
METAR-TAF:

METAR-TAF

Havaalanları :

Tokushima, Japonya

Enlem: 34-08N, Boylam: 134-37E, yükseklik: 8 m

Güncel hava durumu gözlemi

Rapor saat 08:00 UTC de 1 saat ve 14 dakika önce yapıldı.
Rüzgar kuzeybatıdan 11 kt
Sıcaklık 12°C
Nem 44%
Basınç 1010 hPa
Görüş mesafesi 10 km veya daha fazla
3000 ft yükseklikte az bulutlu
parçalı çok bulutlu

METAR: RJOS 010800Z 31011KT 9999 FEW030 BKN/// 12/00 Q1010

Saat: 18:14 (09:14 UTC)


TAF: eksik

4.000'den fazla havaalanı için hava durumu gözlemleri ve tahminleri (METAR ve TAF raporları).

Kullanılabilir istasyonlar harita üzerinde sarı ve kırmızı noktalarla gösterilir.

İstasyonun adını görmek için fareyi noktanın üzerinde gezdirin.

Sonrasında hava gözlem ve tahminlerini görmek için tıklayın.

Haritayı değiştirmek için: yaklaştırmak için siyah artı işaretli yeşil düğmeye ve uzaklaştırmak için de eksi işaretli düğmeye hızla tıklayın; bitişik haritalar için yeşil okları kullanın.


METAR-TAF: